Terminal Aerodrome Forecast
Issued by NWS

Home | Current Version | Previous Version | Graphics & Text | Print | Product List | Glossary On
Versions: 1 2 3 4 5 6 7 8 9 10 11 12 13 14
941
FTUS43 KMPX 101737
TAFAXN
TAF
KAXN 101737Z 1018/1118 32008KT P6SM SCT012 BKN080
     FM110100 26006KT P6SM OVC050
      TEMPO 1103/1106 22008KT 3SM -FZDZSN OVC025
     FM110700 23007KT P6SM SCT020 OVC050
     FM111100 32010KT 6SM -SN BR OVC015
      TEMPO 1111/1115 2SM -SHSN BR OVC007=

USA.gov is the U.S. government's official web portal to all federal, state and local government web resources and services.